sensor_id;sensor_type;location;lat;lon;timestamp;pressure;altitude;pressure_sealevel;temperature;humidity
27805;BME280;15183;51.350;11.102;2023-03-15T00:00:32;99389.88;;;7.42;60.90
27805;BME280;15183;51.350;11.102;2023-03-15T00:02:58;99413.75;;;7.47;60.90
27805;BME280;15183;51.350;11.102;2023-03-15T00:05:24;99382.94;;;7.22;61.33
27805;BME280;15183;51.350;11.102;2023-03-15T00:07:51;99428.00;;;7.39;61.14
27805;BME280;15183;51.350;11.102;2023-03-15T00:10:18;99425.66;;;7.31;60.60
27805;BME280;15183;51.350;11.102;2023-03-15T00:12:45;99404.63;;;7.18;60.60
27805;BME280;15183;51.350;11.102;2023-03-15T00:15:13;99364.31;;;6.92;60.87
27805;BME280;15183;51.350;11.102;2023-03-15T00:17:40;99428.44;;;7.36;60.44
27805;BME280;15183;51.350;11.102;2023-03-15T00:20:08;99437.41;;;7.54;60.44
27805;BME280;15183;51.350;11.102;2023-03-15T00:22:36;99436.03;;;7.51;60.42
27805;BME280;15183;51.350;11.102;2023-03-15T00:25:03;99449.38;;;7.57;60.11
27805;BME280;15183;51.350;11.102;2023-03-15T00:27:29;99431.38;;;7.47;60.03
27805;BME280;15183;51.350;11.102;2023-03-15T00:29:55;99455.50;;;7.50;59.67
27805;BME280;15183;51.350;11.102;2023-03-15T00:32:22;99445.28;;;7.35;59.92
27805;BME280;15183;51.350;11.102;2023-03-15T00:34:48;99414.84;;;7.07;59.53
27805;BME280;15183;51.350;11.102;2023-03-15T00:37:16;99437.50;;;7.15;59.80
27805;BME280;15183;51.350;11.102;2023-03-15T00:39:46;99427.47;;;6.99;60.21
27805;BME280;15183;51.350;11.102;2023-03-15T00:42:13;99449.53;;;7.04;60.34
27805;BME280;15183;51.350;11.102;2023-03-15T00:44:43;99402.59;;;6.56;60.21
27805;BME280;15183;51.350;11.102;2023-03-15T00:47:12;99380.81;;;6.35;60.37
27805;BME280;15183;51.350;11.102;2023-03-15T00:49:40;99440.63;;;6.66;60.50
27805;BME280;15183;51.350;11.102;2023-03-15T00:52:06;99421.22;;;6.54;60.88
27805;BME280;15183;51.350;11.102;2023-03-15T00:54:33;99455.19;;;6.62;60.86
27805;BME280;15183;51.350;11.102;2023-03-15T00:57:00;99436.44;;;6.45;60.42
27805;BME280;15183;51.350;11.102;2023-03-15T00:59:29;99458.47;;;6.58;60.86
27805;BME280;15183;51.350;11.102;2023-03-15T01:02:04;99427.56;;;6.33;60.76
27805;BME280;15183;51.350;11.102;2023-03-15T01:04:31;99448.38;;;6.41;60.31
27805;BME280;15183;51.350;11.102;2023-03-15T01:06:58;99439.75;;;6.20;60.69
27805;BME280;15183;51.350;11.102;2023-03-15T01:09:24;99465.81;;;6.29;60.80
27805;BME280;15183;51.350;11.102;2023-03-15T01:11:51;99453.50;;;6.16;60.79
27805;BME280;15183;51.350;11.102;2023-03-15T01:14:17;99450.09;;;6.15;61.06
27805;BME280;15183;51.350;11.102;2023-03-15T01:16:45;99470.06;;;6.30;61.45
27805;BME280;15183;51.350;11.102;2023-03-15T01:19:12;99481.38;;;6.37;61.34
27805;BME280;15183;51.350;11.102;2023-03-15T01:21:39;99484.59;;;6.46;61.42
27805;BME280;15183;51.350;11.102;2023-03-15T01:24:06;99474.09;;;6.39;61.01
27805;BME280;15183;51.350;11.102;2023-03-15T01:26:32;99484.81;;;6.44;61.32
27805;BME280;15183;51.350;11.102;2023-03-15T01:28:59;99485.63;;;6.45;61.26
27805;BME280;15183;51.350;11.102;2023-03-15T01:31:29;99459.38;;;6.25;61.16
27805;BME280;15183;51.350;11.102;2023-03-15T01:33:57;99457.56;;;6.25;61.09
27805;BME280;15183;51.350;11.102;2023-03-15T01:36:24;99475.94;;;6.32;61.33
27805;BME280;15183;51.350;11.102;2023-03-15T01:38:50;99480.41;;;6.31;61.09
27805;BME280;15183;51.350;11.102;2023-03-15T01:41:18;99426.63;;;5.93;61.28
27805;BME280;15183;51.350;11.102;2023-03-15T01:43:45;99475.56;;;6.28;61.57
27805;BME280;15183;51.350;11.102;2023-03-15T01:46:23;99482.03;;;6.26;61.67
27805;BME280;15183;51.350;11.102;2023-03-15T01:54:39;99490.97;;;6.11;61.24
27805;BME280;15183;51.350;11.102;2023-03-15T01:57:28;99492.94;;;5.96;61.19
27805;BME280;15183;51.350;11.102;2023-03-15T02:00:02;99494.16;;;5.79;61.17
27805;BME280;15183;51.350;11.102;2023-03-15T02:02:33;99492.16;;;5.68;61.65
27805;BME280;15183;51.350;11.102;2023-03-15T02:05:07;99489.94;;;5.65;61.79
27805;BME280;15183;51.350;11.102;2023-03-15T02:07:38;99510.56;;;5.82;61.66
27805;BME280;15183;51.350;11.102;2023-03-15T02:10:14;99499.84;;;5.70;61.67
27805;BME280;15183;51.350;11.102;2023-03-15T02:12:45;99480.41;;;5.57;61.64
27805;BME280;15183;51.350;11.102;2023-03-15T02:15:13;99517.03;;;5.79;61.67
27805;BME280;15183;51.350;11.102;2023-03-15T02:17:44;99485.50;;;5.59;61.61
27805;BME280;15183;51.350;11.102;2023-03-15T02:23:14;99517.03;;;5.59;62.08
27805;BME280;15183;51.350;11.102;2023-03-15T02:26:24;99497.41;;;5.48;62.07
27805;BME280;15183;51.350;11.102;2023-03-15T02:28:53;99501.84;;;5.54;62.01
27805;BME280;15183;51.350;11.102;2023-03-15T02:31:21;99505.69;;;5.58;62.24
27805;BME280;15183;51.350;11.102;2023-03-15T02:34:21;99515.00;;;5.68;62.61
27805;BME280;15183;51.350;11.102;2023-03-15T02:36:51;99510.34;;;5.63;62.25
27805;BME280;15183;51.350;11.102;2023-03-15T02:39:21;99511.16;;;5.63;62.13
27805;BME280;15183;51.350;11.102;2023-03-15T02:41:57;99530.56;;;5.69;62.38
27805;BME280;15183;51.350;11.102;2023-03-15T02:44:36;99518.81;;;5.58;61.89
27805;BME280;15183;51.350;11.102;2023-03-15T02:47:21;99547.72;;;5.58;62.21
27805;BME280;15183;51.350;11.102;2023-03-15T02:49:50;99546.09;;;5.44;62.17
27805;BME280;15183;51.350;11.102;2023-03-15T02:52:17;99526.88;;;5.36;62.50
27805;BME280;15183;51.350;11.102;2023-03-15T02:54:44;99510.47;;;5.21;62.34
27805;BME280;15183;51.350;11.102;2023-03-15T02:57:12;99536.56;;;5.36;62.33
27805;BME280;15183;51.350;11.102;2023-03-15T02:59:39;99549.09;;;5.34;62.65
27805;BME280;15183;51.350;11.102;2023-03-15T03:02:08;99541.22;;;5.34;62.82
27805;BME280;15183;51.350;11.102;2023-03-15T03:04:37;99546.88;;;5.31;63.04
27805;BME280;15183;51.350;11.102;2023-03-15T03:07:04;99561.03;;;5.36;62.60
27805;BME280;15183;51.350;11.102;2023-03-15T03:09:30;99565.53;;;5.49;62.90
27805;BME280;15183;51.350;11.102;2023-03-15T03:11:57;99554.41;;;5.54;62.60
27805;BME280;15183;51.350;11.102;2023-03-15T03:14:24;99567.34;;;5.62;62.47
27805;BME280;15183;51.350;11.102;2023-03-15T03:16:50;99532.97;;;5.44;62.61
27805;BME280;15183;51.350;11.102;2023-03-15T03:19:17;99570.38;;;5.59;62.26
27805;BME280;15183;51.350;11.102;2023-03-15T03:21:44;99571.63;;;5.70;62.42
27805;BME280;15183;51.350;11.102;2023-03-15T03:24:11;99542.66;;;5.50;62.36
27805;BME280;15183;51.350;11.102;2023-03-15T03:26:41;99549.16;;;5.54;62.49
27805;BME280;15183;51.350;11.102;2023-03-15T03:29:11;99552.53;;;5.41;61.91
27805;BME280;15183;51.350;11.102;2023-03-15T03:31:37;99565.47;;;5.36;62.18
27805;BME280;15183;51.350;11.102;2023-03-15T03:34:04;99578.00;;;5.34;62.23
27805;BME280;15183;51.350;11.102;2023-03-15T03:36:30;99610.16;;;5.43;62.65
27805;BME280;15183;51.350;11.102;2023-03-15T03:38:56;99599.88;;;5.48;62.42
27805;BME280;15183;51.350;11.102;2023-03-15T03:41:23;99600.50;;;5.57;62.66
27805;BME280;15183;51.350;11.102;2023-03-15T03:43:49;99615.88;;;5.67;62.48
27805;BME280;15183;51.350;11.102;2023-03-15T03:46:16;99599.34;;;5.73;62.80
27805;BME280;15183;51.350;11.102;2023-03-15T03:48:42;99592.63;;;5.70;62.14
27805;BME280;15183;51.350;11.102;2023-03-15T03:51:08;99594.47;;;5.70;62.09
27805;BME280;15183;51.350;11.102;2023-03-15T03:53:35;99607.41;;;5.71;62.26
27805;BME280;15183;51.350;11.102;2023-03-15T03:56:07;99616.72;;;5.80;62.40
27805;BME280;15183;51.350;11.102;2023-03-15T03:58:33;99613.50;;;5.85;62.59
27805;BME280;15183;51.350;11.102;2023-03-15T04:01:00;99600.53;;;5.84;62.52
27805;BME280;15183;51.350;11.102;2023-03-15T04:03:26;99607.44;;;5.91;62.42
27805;BME280;15183;51.350;11.102;2023-03-15T04:05:54;99617.59;;;6.01;62.38
27805;BME280;15183;51.350;11.102;2023-03-15T04:08:59;99626.09;;;6.03;62.43
27805;BME280;15183;51.350;11.102;2023-03-15T04:11:28;99630.53;;;6.03;62.34
27805;BME280;15183;51.350;11.102;2023-03-15T04:13:54;99596.91;;;5.78;62.38
27805;BME280;15183;51.350;11.102;2023-03-15T04:16:21;99631.69;;;5.93;62.09
27805;BME280;15183;51.350;11.102;2023-03-15T04:18:49;99634.78;;;6.11;62.32
27805;BME280;15183;51.350;11.102;2023-03-15T04:21:16;99624.81;;;5.92;62.22
27805;BME280;15183;51.350;11.102;2023-03-15T04:23:48;99639.03;;;6.05;62.31
27805;BME280;15183;51.350;11.102;2023-03-15T04:26:14;99650.38;;;6.26;62.57
27805;BME280;15183;51.350;11.102;2023-03-15T04:28:41;99650.38;;;6.39;62.47
27805;BME280;15183;51.350;11.102;2023-03-15T04:31:09;99644.31;;;6.52;62.48
27805;BME280;15183;51.350;11.102;2023-03-15T04:33:39;99662.72;;;6.72;62.40
27805;BME280;15183;51.350;11.102;2023-03-15T04:36:06;99649.75;;;6.77;62.16
27805;BME280;15183;51.350;11.102;2023-03-15T04:38:32;99665.53;;;6.91;61.99
27805;BME280;15183;51.350;11.102;2023-03-15T04:41:00;99646.50;;;6.82;61.49
27805;BME280;15183;51.350;11.102;2023-03-15T04:43:26;99642.44;;;6.79;62.15
27805;BME280;15183;51.350;11.102;2023-03-15T04:45:53;99635.38;;;6.87;62.13
27805;BME280;15183;51.350;11.102;2023-03-15T04:48:19;99674.00;;;7.20;62.16
27805;BME280;15183;51.350;11.102;2023-03-15T04:50:46;99645.81;;;7.20;61.70
27805;BME280;15183;51.350;11.102;2023-03-15T04:53:12;99639.69;;;7.27;61.79
27805;BME280;15183;51.350;11.102;2023-03-15T04:55:38;99651.00;;;7.47;61.81
27805;BME280;15183;51.350;11.102;2023-03-15T04:58:05;99642.06;;;7.42;61.49
27805;BME280;15183;51.350;11.102;2023-03-15T05:00:31;99661.06;;;7.57;61.46
27805;BME280;15183;51.350;11.102;2023-03-15T05:02:58;99683.56;;;7.66;61.56
27805;BME280;15183;51.350;11.102;2023-03-15T05:05:24;99686.97;;;7.74;61.42
27805;BME280;15183;51.350;11.102;2023-03-15T05:07:50;99682.47;;;7.74;61.51
27805;BME280;15183;51.350;11.102;2023-03-15T05:10:17;99681.69;;;7.74;60.98
27805;BME280;15183;51.350;11.102;2023-03-15T05:12:43;99700.31;;;7.79;61.17
27805;BME280;15183;51.350;11.102;2023-03-15T05:15:11;99671.44;;;7.52;60.98
27805;BME280;15183;51.350;11.102;2023-03-15T05:17:38;99692.91;;;7.62;61.02
27805;BME280;15183;51.350;11.102;2023-03-15T05:20:26;99675.91;;;7.45;61.00
27805;BME280;15183;51.350;11.102;2023-03-15T05:22:52;99696.41;;;7.49;60.76
27805;BME280;15183;51.350;11.102;2023-03-15T05:25:19;99700.44;;;7.52;60.62
27805;BME280;15183;51.350;11.102;2023-03-15T05:27:46;99686.09;;;7.41;60.89
27805;BME280;15183;51.350;11.102;2023-03-15T05:30:13;99704.66;;;7.60;61.16
27805;BME280;15183;51.350;11.102;2023-03-15T05:32:40;99697.34;;;7.62;61.19
27805;BME280;15183;51.350;11.102;2023-03-15T05:35:11;99714.53;;;7.78;61.29
27805;BME280;15183;51.350;11.102;2023-03-15T05:37:38;99695.06;;;7.72;60.82
27805;BME280;15183;51.350;11.102;2023-03-15T05:40:05;99692.84;;;7.69;60.53
27805;BME280;15183;51.350;11.102;2023-03-15T05:42:33;99719.13;;;7.89;60.82
27805;BME280;15183;51.350;11.102;2023-03-15T05:45:00;99717.09;;;7.91;60.68
27805;BME280;15183;51.350;11.102;2023-03-15T05:47:27;99696.25;;;7.76;60.44
27805;BME280;15183;51.350;11.102;2023-03-15T05:49:53;99706.69;;;7.64;60.39
27805;BME280;15183;51.350;11.102;2023-03-15T05:52:19;99695.13;;;7.59;60.43
27805;BME280;15183;51.350;11.102;2023-03-15T05:54:46;99713.75;;;7.71;60.61
27805;BME280;15183;51.350;11.102;2023-03-15T06:00:54;99732.81;;;7.66;61.04
27805;BME280;15183;51.350;11.102;2023-03-15T06:03:21;99727.78;;;7.64;60.64
27805;BME280;15183;51.350;11.102;2023-03-15T06:05:47;99736.91;;;7.55;60.86
27805;BME280;15183;51.350;11.102;2023-03-15T06:08:13;99755.53;;;7.74;60.75
27805;BME280;15183;51.350;11.102;2023-03-15T06:10:40;99754.69;;;7.73;60.81
27805;BME280;15183;51.350;11.102;2023-03-15T06:13:06;99751.25;;;7.79;60.81
27805;BME280;15183;51.350;11.102;2023-03-15T06:15:33;99754.09;;;7.78;61.02
27805;BME280;15183;51.350;11.102;2023-03-15T06:17:59;99764.22;;;7.81;60.71
27805;BME280;15183;51.350;11.102;2023-03-15T06:20:26;99739.94;;;7.65;60.98
27805;BME280;15183;51.350;11.102;2023-03-15T06:22:52;99767.81;;;7.93;60.98
27805;BME280;15183;51.350;11.102;2023-03-15T06:25:19;99743.09;;;7.88;60.86
27805;BME280;15183;51.350;11.102;2023-03-15T06:27:45;99763.34;;;8.01;60.64
27805;BME280;15183;51.350;11.102;2023-03-15T06:30:12;99761.94;;;7.91;60.45
27805;BME280;15183;51.350;11.102;2023-03-15T06:32:39;99704.50;;;7.48;60.44
27805;BME280;15183;51.350;11.102;2023-03-15T06:35:05;99774.09;;;7.92;60.46
27805;BME280;15183;51.350;11.102;2023-03-15T06:37:32;99757.31;;;7.80;60.49
27805;BME280;15183;51.350;11.102;2023-03-15T06:40:05;99765.22;;;7.87;60.77
27805;BME280;15183;51.350;11.102;2023-03-15T06:42:33;99797.59;;;8.07;60.64
27805;BME280;15183;51.350;11.102;2023-03-15T06:45:00;99787.25;;;8.06;60.69
27805;BME280;15183;51.350;11.102;2023-03-15T06:47:26;99758.69;;;7.89;60.24
27805;BME280;15183;51.350;11.102;2023-03-15T06:49:53;99822.50;;;8.18;59.88
27805;BME280;15183;51.350;11.102;2023-03-15T06:52:19;99749.63;;;7.78;60.51
27805;BME280;15183;51.350;11.102;2023-03-15T06:54:46;99809.72;;;8.22;60.03
27805;BME280;15183;51.350;11.102;2023-03-15T06:57:12;99806.47;;;8.20;59.80
27805;BME280;15183;51.350;11.102;2023-03-15T06:59:39;99818.00;;;8.25;59.87
27805;BME280;15183;51.350;11.102;2023-03-15T07:02:08;99803.03;;;8.13;59.93
27805;BME280;15183;51.350;11.102;2023-03-15T07:04:38;99819.06;;;8.18;60.25
27805;BME280;15183;51.350;11.102;2023-03-15T07:07:04;99818.84;;;8.19;59.93
27805;BME280;15183;51.350;11.102;2023-03-15T07:09:31;99815.44;;;8.12;59.93
27805;BME280;15183;51.350;11.102;2023-03-15T07:11:57;99828.03;;;8.10;60.05
27805;BME280;15183;51.350;11.102;2023-03-15T07:14:24;99741.59;;;7.53;59.90
27805;BME280;15183;51.350;11.102;2023-03-15T07:16:50;99837.38;;;8.06;59.79
27805;BME280;15183;51.350;11.102;2023-03-15T07:19:16;99856.22;;;8.16;60.35
27805;BME280;15183;51.350;11.102;2023-03-15T07:21:43;99777.28;;;7.62;60.16
27805;BME280;15183;51.350;11.102;2023-03-15T07:24:09;99857.25;;;8.15;59.97
27805;BME280;15183;51.350;11.102;2023-03-15T07:26:36;99841.88;;;7.99;59.38
27805;BME280;15183;51.350;11.102;2023-03-15T07:29:02;99844.34;;;7.87;59.55
27805;BME280;15183;51.350;11.102;2023-03-15T07:31:29;99879.84;;;7.97;59.61
27805;BME280;15183;51.350;11.102;2023-03-15T07:33:55;99842.97;;;7.64;59.69
27805;BME280;15183;51.350;11.102;2023-03-15T07:36:22;99878.47;;;7.68;59.64
27805;BME280;15183;51.350;11.102;2023-03-15T07:38:48;99872.00;;;7.50;59.69
27805;BME280;15183;51.350;11.102;2023-03-15T07:41:15;99879.31;;;7.48;59.96
27805;BME280;15183;51.350;11.102;2023-03-15T07:51:05;99891.69;;;7.41;60.85
27805;BME280;15183;51.350;11.102;2023-03-15T07:53:31;99892.47;;;7.42;60.92
27805;BME280;15183;51.350;11.102;2023-03-15T07:55:58;99917.81;;;7.49;61.08
27805;BME280;15183;51.350;11.102;2023-03-15T07:58:24;99864.69;;;7.12;61.38
27805;BME280;15183;51.350;11.102;2023-03-15T08:00:54;99921.66;;;7.47;61.45
27805;BME280;15183;51.350;11.102;2023-03-15T08:03:22;99917.81;;;7.36;61.28
27805;BME280;15183;51.350;11.102;2023-03-15T08:05:50;99909.72;;;7.37;61.82
27805;BME280;15183;51.350;11.102;2023-03-15T08:08:16;99932.00;;;7.62;61.94
27805;BME280;15183;51.350;11.102;2023-03-15T08:10:43;99917.81;;;7.63;61.97
27805;BME280;15183;51.350;11.102;2023-03-15T08:13:11;99912.13;;;7.79;62.14
27805;BME280;15183;51.350;11.102;2023-03-15T08:15:37;99922.06;;;7.97;62.37
27805;BME280;15183;51.350;11.102;2023-03-15T08:18:04;99925.03;;;8.21;62.23
27805;BME280;15183;51.350;11.102;2023-03-15T08:20:31;99916.91;;;8.16;62.00
27805;BME280;15183;51.350;11.102;2023-03-15T08:22:59;99928.22;;;8.50;62.32
27805;BME280;15183;51.350;11.102;2023-03-15T08:25:27;99915.59;;;8.59;62.30
27805;BME280;15183;51.350;11.102;2023-03-15T08:27:53;99842.78;;;8.24;62.15
27805;BME280;15183;51.350;11.102;2023-03-15T08:30:21;99918.91;;;8.87;61.93
27805;BME280;15183;51.350;11.102;2023-03-15T08:32:49;99902.63;;;8.90;61.95
27805;BME280;15183;51.350;11.102;2023-03-15T08:35:20;99938.44;;;9.18;62.21
27805;BME280;15183;51.350;11.102;2023-03-15T08:37:47;99932.66;;;9.27;61.55
27805;BME280;15183;51.350;11.102;2023-03-15T08:40:16;99932.34;;;9.43;61.64
27805;BME280;15183;51.350;11.102;2023-03-15T08:42:48;99922.47;;;9.31;61.21
27805;BME280;15183;51.350;11.102;2023-03-15T08:45:15;99924.63;;;9.16;61.17
27805;BME280;15183;51.350;11.102;2023-03-15T08:47:42;99942.69;;;9.19;61.30
27805;BME280;15183;51.350;11.102;2023-03-15T08:50:12;99936.59;;;9.18;61.23
27805;BME280;15183;51.350;11.102;2023-03-15T08:52:39;99962.72;;;9.33;61.26
27805;BME280;15183;51.350;11.102;2023-03-15T08:55:06;99945.66;;;9.29;61.03
27805;BME280;15183;51.350;11.102;2023-03-15T08:57:33;99969.56;;;9.48;61.17
27805;BME280;15183;51.350;11.102;2023-03-15T09:00:03;99950.34;;;9.27;61.02
27805;BME280;15183;51.350;11.102;2023-03-15T09:02:36;99972.00;;;9.43;61.06
27805;BME280;15183;51.350;11.102;2023-03-15T09:05:03;99979.69;;;9.51;60.60
27805;BME280;15183;51.350;11.102;2023-03-15T09:07:33;99964.50;;;9.39;60.89
27805;BME280;15183;51.350;11.102;2023-03-15T09:09:59;99977.69;;;9.46;60.94
27805;BME280;15183;51.350;11.102;2023-03-15T09:12:25;99971.22;;;9.42;60.84
27805;BME280;15183;51.350;11.102;2023-03-15T09:14:53;99974.84;;;9.48;60.62
27805;BME280;15183;51.350;11.102;2023-03-15T09:17:19;99986.41;;;9.47;60.27
27805;BME280;15183;51.350;11.102;2023-03-15T09:19:46;99935.50;;;9.01;59.68
27805;BME280;15183;51.350;11.102;2023-03-15T09:22:12;99998.28;;;9.37;59.70
27805;BME280;15183;51.350;11.102;2023-03-15T09:24:39;99976.66;;;9.15;60.02
27805;BME280;15183;51.350;11.102;2023-03-15T09:27:06;99996.59;;;9.18;59.74
27805;BME280;15183;51.350;11.102;2023-03-15T09:29:32;100013.91;;;9.07;59.42
27805;BME280;15183;51.350;11.102;2023-03-15T09:31:59;100007.81;;;9.06;59.39
27805;BME280;15183;51.350;11.102;2023-03-15T09:34:27;100009.41;;;9.14;59.04
27805;BME280;15183;51.350;11.102;2023-03-15T09:36:53;100016.06;;;9.23;59.07
27805;BME280;15183;51.350;11.102;2023-03-15T09:39:21;99967.06;;;8.89;58.59
27805;BME280;15183;51.350;11.102;2023-03-15T09:41:57;99986.13;;;8.97;58.39
27805;BME280;15183;51.350;11.102;2023-03-15T09:44:46;100019.72;;;9.22;58.98
27805;BME280;15183;51.350;11.102;2023-03-15T09:50:33;100020.88;;;9.33;58.93
27805;BME280;15183;51.350;11.102;2023-03-15T09:56:39;100017.06;;;9.61;58.50
27805;BME280;15183;51.350;11.102;2023-03-15T09:59:09;100034.88;;;9.73;57.72
27805;BME280;15183;51.350;11.102;2023-03-15T10:01:39;100030.34;;;9.80;58.16
27805;BME280;15183;51.350;11.102;2023-03-15T10:04:32;100025.44;;;9.83;58.30
27805;BME280;15183;51.350;11.102;2023-03-15T10:07:05;100041.91;;;9.85;57.97
27805;BME280;15183;51.350;11.102;2023-03-15T10:09:34;100022.78;;;9.58;57.34
27805;BME280;15183;51.350;11.102;2023-03-15T10:12:09;100045.63;;;9.78;57.78
27805;BME280;15183;51.350;11.102;2023-03-15T10:20:18;100041.59;;;10.01;58.00
27805;BME280;15183;51.350;11.102;2023-03-15T10:25:34;100040.22;;;10.42;57.54
27805;BME280;15183;51.350;11.102;2023-03-15T10:28:11;100029.28;;;10.57;57.00
27805;BME280;15183;51.350;11.102;2023-03-15T10:30:46;100034.84;;;10.67;57.19
27805;BME280;15183;51.350;11.102;2023-03-15T10:33:35;100042.75;;;10.74;57.01
27805;BME280;15183;51.350;11.102;2023-03-15T10:36:16;100031.19;;;10.68;55.50
27805;BME280;15183;51.350;11.102;2023-03-15T10:38:44;100047.22;;;10.74;55.11
27805;BME280;15183;51.350;11.102;2023-03-15T10:41:13;100060.91;;;10.70;52.83
27805;BME280;15183;51.350;11.102;2023-03-15T10:43:40;100044.69;;;10.41;53.28
27805;BME280;15183;51.350;11.102;2023-03-15T10:46:20;99995.56;;;10.02;53.61
27805;BME280;15183;51.350;11.102;2023-03-15T10:49:14;100055.03;;;10.24;52.36
27805;BME280;15183;51.350;11.102;2023-03-15T10:51:44;100041.16;;;10.04;51.94
27805;BME280;15183;51.350;11.102;2023-03-15T10:54:21;100068.38;;;10.11;51.43
27805;BME280;15183;51.350;11.102;2023-03-15T10:59:34;100076.56;;;10.09;52.93
27805;BME280;15183;51.350;11.102;2023-03-15T11:05:00;99994.47;;;9.59;53.06
27805;BME280;15183;51.350;11.102;2023-03-15T11:07:28;100081.72;;;10.23;53.51
27805;BME280;15183;51.350;11.102;2023-03-15T11:09:59;100062.72;;;10.07;52.31
27805;BME280;15183;51.350;11.102;2023-03-15T11:12:30;100089.47;;;10.24;52.94
27805;BME280;15183;51.350;11.102;2023-03-15T11:15:04;100079.91;;;10.23;53.32
27805;BME280;15183;51.350;11.102;2023-03-15T11:17:35;100058.59;;;10.11;53.01
27805;BME280;15183;51.350;11.102;2023-03-15T11:20:37;100059.09;;;10.02;53.19
27805;BME280;15183;51.350;11.102;2023-03-15T11:23:19;100065.97;;;10.09;53.35
27805;BME280;15183;51.350;11.102;2023-03-15T11:25:46;100073.56;;;10.24;53.04
27805;BME280;15183;51.350;11.102;2023-03-15T11:28:27;100064.38;;;10.27;52.98
27805;BME280;15183;51.350;11.102;2023-03-15T11:30:58;100088.50;;;10.44;53.20
27805;BME280;15183;51.350;11.102;2023-03-15T11:33:40;100060.09;;;10.51;53.26
27805;BME280;15183;51.350;11.102;2023-03-15T11:36:15;100061.06;;;10.76;52.94
27805;BME280;15183;51.350;11.102;2023-03-15T11:38:44;99998.44;;;10.44;51.63
27805;BME280;15183;51.350;11.102;2023-03-15T11:47:13;100083.25;;;11.00;50.37
27805;BME280;15183;51.350;11.102;2023-03-15T11:49:50;100078.59;;;10.95;50.25
27805;BME280;15183;51.350;11.102;2023-03-15T11:52:22;100038.78;;;10.65;50.52
27805;BME280;15183;51.350;11.102;2023-03-15T11:54:49;100074.31;;;10.94;50.81
27805;BME280;15183;51.350;11.102;2023-03-15T12:02:58;100052.38;;;10.68;51.75
27805;BME280;15183;51.350;11.102;2023-03-15T12:08:39;100076.59;;;10.72;51.20
27805;BME280;15183;51.350;11.102;2023-03-15T12:14:04;100063.47;;;10.59;51.58
27805;BME280;15183;51.350;11.102;2023-03-15T12:16:38;100061.84;;;10.57;51.41
27805;BME280;15183;51.350;11.102;2023-03-15T12:19:16;100052.16;;;10.51;51.57
27805;BME280;15183;51.350;11.102;2023-03-15T12:21:54;100068.88;;;10.70;51.42
27805;BME280;15183;51.350;11.102;2023-03-15T12:24:24;100075.34;;;10.75;51.58
27805;BME280;15183;51.350;11.102;2023-03-15T12:27:16;100070.03;;;10.75;51.74
27805;BME280;15183;51.350;11.102;2023-03-15T12:29:45;100069.81;;;10.57;49.29
27805;BME280;15183;51.350;11.102;2023-03-15T12:32:14;100064.06;;;10.42;49.22
27805;BME280;15183;51.350;11.102;2023-03-15T12:34:56;100059.66;;;10.29;49.25
27805;BME280;15183;51.350;11.102;2023-03-15T12:37:46;100071.72;;;10.25;49.66
27805;BME280;15183;51.350;11.102;2023-03-15T12:53:18;100100.28;;;10.48;50.24
27805;BME280;15183;51.350;11.102;2023-03-15T12:55:49;100111.91;;;10.47;50.56
27805;BME280;15183;51.350;11.102;2023-03-15T12:58:20;100095.72;;;10.55;51.03
27805;BME280;15183;51.350;11.102;2023-03-15T13:04:28;100112.63;;;10.80;50.67
27805;BME280;15183;51.350;11.102;2023-03-15T13:07:36;100102.16;;;10.85;51.43
27805;BME280;15183;51.350;11.102;2023-03-15T13:10:29;100108.47;;;11.03;51.36
27805;BME280;15183;51.350;11.102;2023-03-15T13:15:48;100054.22;;;10.68;50.84
27805;BME280;15183;51.350;11.102;2023-03-15T13:18:22;100068.22;;;10.75;50.99
27805;BME280;15183;51.350;11.102;2023-03-15T13:23:34;100070.84;;;10.56;49.54
27805;BME280;15183;51.350;11.102;2023-03-15T13:29:29;100078.47;;;10.46;49.61
27805;BME280;15183;51.350;11.102;2023-03-15T13:34:35;100086.81;;;10.50;49.41
27805;BME280;15183;51.350;11.102;2023-03-15T13:37:02;100105.03;;;10.65;49.45
27805;BME280;15183;51.350;11.102;2023-03-15T13:39:32;100082.25;;;10.57;49.55
27805;BME280;15183;51.350;11.102;2023-03-15T13:42:19;100100.66;;;10.70;49.10
27805;BME280;15183;51.350;11.102;2023-03-15T13:44:45;100105.97;;;10.70;48.10
27805;BME280;15183;51.350;11.102;2023-03-15T13:47:19;100111.13;;;10.65;47.76
27805;BME280;15183;51.350;11.102;2023-03-15T13:49:51;100049.06;;;10.29;48.21
27805;BME280;15183;51.350;11.102;2023-03-15T13:52:18;100126.53;;;10.75;48.46
27805;BME280;15183;51.350;11.102;2023-03-15T13:55:30;100112.00;;;10.78;49.43
27805;BME280;15183;51.350;11.102;2023-03-15T13:58:05;100122.84;;;10.95;49.55
27805;BME280;15183;51.350;11.102;2023-03-15T14:00:33;100120.94;;;11.02;49.57
27805;BME280;15183;51.350;11.102;2023-03-15T14:03:06;100131.53;;;11.21;48.93
27805;BME280;15183;51.350;11.102;2023-03-15T14:05:46;100128.34;;;11.31;48.78
27805;BME280;15183;51.350;11.102;2023-03-15T14:08:32;100145.41;;;11.53;48.60
27805;BME280;15183;51.350;11.102;2023-03-15T14:11:03;100156.78;;;11.61;47.93
27805;BME280;15183;51.350;11.102;2023-03-15T14:13:51;100158.06;;;11.39;45.90
27805;BME280;15183;51.350;11.102;2023-03-15T14:16:41;100101.69;;;10.69;46.14
27805;BME280;15183;51.350;11.102;2023-03-15T14:19:22;100155.81;;;10.80;46.68
27805;BME280;15183;51.350;11.102;2023-03-15T14:22:03;100171.47;;;10.63;46.39
27805;BME280;15183;51.350;11.102;2023-03-15T14:24:35;100173.41;;;10.49;46.50
27805;BME280;15183;51.350;11.102;2023-03-15T14:27:13;100168.72;;;10.19;47.15
27805;BME280;15183;51.350;11.102;2023-03-15T14:29:56;100162.53;;;10.00;47.83
27805;BME280;15183;51.350;11.102;2023-03-15T14:35:01;100181.97;;;9.87;48.53
27805;BME280;15183;51.350;11.102;2023-03-15T14:37:39;100175.53;;;9.69;49.27
27805;BME280;15183;51.350;11.102;2023-03-15T14:40:20;100171.09;;;9.63;49.36